Time;durP1;ratioP1;P1;durP2;ratioP2;P2;SDS_P1;SDS_P2;PMS_P1;PMS_P2;Temp;Humidity;BMP_temperature;BMP_pressure;BME280_temperature;BME280_humidity;BME280_pressure;Samples;Min_cycle;Max_cycle;Signal;HPM_P1;HPM_P2
2023/10/12 00:02:21;;;;;;;;;;;;;;;33.15;24.36;98079.81;5011507;28;19953;-87
2023/10/12 00:04:53;;;;;;;;;;;;;;;33.16;24.18;98079.34;5010817;28;20000;-87
2023/10/12 00:07:54;;;;;;;;;;;;;;;33.05;24.40;98073.47;5009942;28;19929;-87
2023/10/12 00:12:46;;;;;;;;;;;;;;;33.14;24.71;98083.97;5003186;28;19926;-90
2023/10/12 00:17:44;;;;;;;;;;;;;;;32.93;24.71;98077.41;5001204;28;20370;-90
2023/10/12 00:20:21;;;;;;;;;;;;;;;33.10;24.36;98078.47;5010945;28;19928;-90
2023/10/12 00:22:47;;;;;;;;;;;;;;;33.17;24.13;98074.41;5012657;28;19972;-89
2023/10/12 00:25:16;;;;;;;;;;;;;;;33.32;24.13;98070.25;5009659;28;19921;-89
2023/10/12 00:27:47;;;;;;;;;;;;;;;33.47;23.83;98063.69;5008524;28;19940;-90
2023/10/12 00:30:14;;;;;;;;;;;;;;;33.58;23.57;98061.81;5014542;28;19927;-89
2023/10/12 00:32:41;;;;;;;;;;;;;;;33.61;24.14;98065.72;5009420;28;19922;-89
2023/10/12 00:35:14;;;;;;;;;;;;;;;33.55;23.77;98068.47;5010959;28;20408;-90
2023/10/12 00:37:43;;;;;;;;;;;;;;;33.50;23.91;98059.84;5012506;28;19929;-90
2023/10/12 00:40:29;;;;;;;;;;;;;;;33.34;23.96;98058.34;5011504;28;20338;-90
2023/10/12 00:42:56;;;;;;;;;;;;;;;33.24;24.14;98057.72;5013164;28;19922;-89
2023/10/12 00:45:29;;;;;;;;;;;;;;;33.32;23.96;98056.03;5014032;28;20416;-89
2023/10/12 00:48:06;;;;;;;;;;;;;;;33.35;24.40;98054.25;5013402;28;19921;-89
2023/10/12 00:50:36;;;;;;;;;;;;;;;33.54;24.10;98055.50;5006239;28;19932;-89
2023/10/12 00:53:22;;;;;;;;;;;;;;;33.65;23.74;98061.38;5014940;28;19926;-89
2023/10/12 00:55:48;;;;;;;;;;;;;;;33.65;23.56;98055.66;5015114;28;19921;-89
2023/10/12 00:58:15;;;;;;;;;;;;;;;33.60;23.88;98055.59;5011747;28;19921;-89
2023/10/12 01:00:46;;;;;;;;;;;;;;;33.62;23.86;98053.03;5005208;28;19984;-89
2023/10/12 01:08:35;;;;;;;;;;;;;;;33.49;24.16;98044.84;5008770;28;19922;-89
2023/10/12 01:11:05;;;;;;;;;;;;;;;33.38;24.04;98051.16;5012824;28;19948;-89
2023/10/12 01:13:35;;;;;;;;;;;;;;;33.30;24.22;98043.56;5007635;28;19929;-89
2023/10/12 01:16:16;;;;;;;;;;;;;;;33.24;24.31;98048.38;5013895;28;20004;-89
2023/10/12 01:18:44;;;;;;;;;;;;;;;33.06;24.26;98040.91;4999663;28;19964;-89
2023/10/12 01:21:11;;;;;;;;;;;;;;;33.08;24.30;98038.34;5008984;28;19922;-89
2023/10/12 01:23:41;;;;;;;;;;;;;;;33.06;24.36;98046.59;5014893;28;19926;-89
2023/10/12 01:26:10;;;;;;;;;;;;;;;32.82;24.55;98045.97;5013584;28;19989;-89
2023/10/12 01:28:37;;;;;;;;;;;;;;;32.84;24.57;98051.94;5005724;28;20403;-89
2023/10/12 01:31:06;;;;;;;;;;;;;;;32.91;24.89;98048.69;5013858;28;20373;-89
2023/10/12 01:33:32;;;;;;;;;;;;;;;32.96;24.62;98050.03;5009654;28;19969;-89
2023/10/12 01:35:59;;;;;;;;;;;;;;;32.95;24.74;98059.88;5011268;28;19927;-89
2023/10/12 01:38:36;;;;;;;;;;;;;;;32.85;25.11;98056.34;5019975;28;19921;-89
2023/10/12 01:41:09;;;;;;;;;;;;;;;32.94;24.76;98059.06;5012877;28;19972;-89
2023/10/12 01:43:36;;;;;;;;;;;;;;;32.85;24.67;98062.06;5002761;28;19977;-89
2023/10/12 01:46:08;;;;;;;;;;;;;;;32.85;24.96;98058.41;5015358;28;19922;-89
2023/10/12 01:48:34;;;;;;;;;;;;;;;32.91;24.97;98054.38;5014433;28;20020;-89
2023/10/12 01:51:03;;;;;;;;;;;;;;;32.86;24.90;98052.22;5014142;28;20020;-89
2023/10/12 01:53:32;;;;;;;;;;;;;;;32.92;24.71;98064.47;5015475;28;20305;-89
2023/10/12 01:56:09;;;;;;;;;;;;;;;32.75;24.66;98064.22;5012694;28;19922;-89
2023/10/12 01:58:35;;;;;;;;;;;;;;;32.65;25.24;98056.31;5012296;28;19921;-89
2023/10/12 02:01:08;;;;;;;;;;;;;;;32.59;25.60;98055.44;5014395;28;19925;-89
2023/10/12 02:03:42;;;;;;;;;;;;;;;32.52;25.38;98050.16;5008075;28;19967;-89
2023/10/12 02:06:13;;;;;;;;;;;;;;;32.43;25.78;98053.09;5010938;28;19926;-89
2023/10/12 02:08:40;;;;;;;;;;;;;;;32.46;25.63;98050.06;5004785;28;19931;-89
2023/10/12 02:13:50;;;;;;;;;;;;;;;32.43;25.71;98039.66;5002012;28;19930;-89
2023/10/12 02:16:53;;;;;;;;;;;;;;;32.43;26.06;98042.50;5002219;28;19933;-89
2023/10/12 02:19:19;;;;;;;;;;;;;;;32.37;25.83;98035.16;5003954;28;20009;-89
2023/10/12 02:21:46;;;;;;;;;;;;;;;32.34;25.70;98036.94;5006998;28;19921;-89
2023/10/12 02:24:13;;;;;;;;;;;;;;;32.29;25.58;98034.78;5009251;28;19934;-89
2023/10/12 02:29:17;;;;;;;;;;;;;;;32.17;25.52;98040.75;5014153;28;19972;-89
2023/10/12 02:34:17;;;;;;;;;;;;;;;32.06;25.59;98030.00;5000442;28;19925;-89
2023/10/12 02:37:28;;;;;;;;;;;;;;;32.13;25.88;98021.06;5010692;28;19932;-89
2023/10/12 02:39:40;;;;;;;;;;;;;;;31.76;26.08;98026.34;5002776;28;19961;-89
2023/10/12 02:47:22;;;;;;;;;;;;;;;31.51;26.49;98015.50;5011710;28;19918;-89
2023/10/12 02:49:48;;;;;;;;;;;;;;;31.86;26.06;98012.81;5013897;28;20339;-89
2023/10/12 02:52:15;;;;;;;;;;;;;;;31.75;26.32;98013.41;5003001;28;19921;-89
2023/10/12 02:54:49;;;;;;;;;;;;;;;31.99;26.14;98013.34;5004472;28;19991;-89
2023/10/12 02:57:25;;;;;;;;;;;;;;;32.09;26.38;98006.28;4999783;28;20071;-89
2023/10/12 03:00:01;;;;;;;;;;;;;;;32.33;26.20;98012.63;5011897;28;19925;-89
2023/10/12 03:02:33;;;;;;;;;;;;;;;32.57;25.55;98012.50;5007183;28;19922;-89
2023/10/12 03:05:01;;;;;;;;;;;;;;;32.55;25.74;98003.69;5010859;28;19930;-89
2023/10/12 03:07:27;;;;;;;;;;;;;;;32.84;25.17;97992.22;5004996;28;20417;-89
2023/10/12 03:09:58;;;;;;;;;;;;;;;32.83;25.38;97995.56;5008532;28;19967;-89
2023/10/12 03:12:25;;;;;;;;;;;;;;;32.72;25.40;97993.34;5009804;28;19944;-89
2023/10/12 03:14:52;;;;;;;;;;;;;;;33.04;24.66;97983.72;5013444;28;19921;-88
2023/10/12 03:17:23;;;;;;;;;;;;;;;33.15;24.87;97978.16;5011844;28;19929;-89
2023/10/12 03:19:55;;;;;;;;;;;;;;;32.92;25.14;97984.03;5005312;28;19967;-89
2023/10/12 03:22:31;;;;;;;;;;;;;;;32.93;25.02;97980.69;5009015;28;19929;-89
2023/10/12 03:25:05;;;;;;;;;;;;;;;32.91;25.02;97974.72;5008188;28;19928;-89
2023/10/12 03:27:33;;;;;;;;;;;;;;;32.94;25.09;97979.44;5008424;28;19925;-90
2023/10/12 03:30:10;;;;;;;;;;;;;;;32.82;25.12;97983.38;5012311;28;20416;-90
2023/10/12 03:32:36;;;;;;;;;;;;;;;32.57;25.35;97979.19;5008852;28;19930;-88
2023/10/12 03:35:04;;;;;;;;;;;;;;;32.58;25.11;97982.81;5004905;28;19929;-89
2023/10/12 03:37:44;;;;;;;;;;;;;;;32.74;25.16;97977.34;5014110;28;19928;-89
2023/10/12 03:42:56;;;;;;;;;;;;;;;33.15;24.50;97983.06;5006147;28;19928;-89
2023/10/12 03:50:58;;;;;;;;;;;;;;;32.84;24.58;97977.97;5012744;28;19921;-89
2023/10/12 03:53:31;;;;;;;;;;;;;;;32.84;24.98;97980.06;5011468;28;19927;-89
2023/10/12 03:56:00;;;;;;;;;;;;;;;32.92;25.02;97984.03;5013465;28;19922;-89
2023/10/12 03:58:27;;;;;;;;;;;;;;;32.94;24.47;97979.44;5019506;28;19944;-89
2023/10/12 04:03:40;;;;;;;;;;;;;;;32.73;25.28;97975.00;5009638;28;19976;-89
2023/10/12 04:06:14;;;;;;;;;;;;;;;32.77;25.58;97977.66;5017559;28;19918;-89
2023/10/12 04:08:46;;;;;;;;;;;;;;;32.37;25.83;97978.31;5016474;28;19922;-89
2023/10/12 04:21:27;;;;;;;;;;;;;;;32.19;25.99;97970.78;5013996;28;20036;-89
2023/10/12 04:29:02;;;;;;;;;;;;;;;31.99;25.86;97979.25;5010959;28;19925;-88
2023/10/12 04:39:15;;;;;;;;;;;;;;;31.76;26.05;97966.72;5002702;28;20401;-88
2023/10/12 04:41:46;;;;;;;;;;;;;;;31.67;26.58;97968.84;5011787;28;19922;-88
2023/10/12 04:47:09;;;;;;;;;;;;;;;31.59;26.26;97965.63;4997057;28;20333;-87
2023/10/12 04:49:54;;;;;;;;;;;;;;;31.48;26.79;97964.63;5014358;28;20028;-87
2023/10/12 04:52:32;;;;;;;;;;;;;;;31.53;26.82;97966.78;4998394;28;19921;-86
2023/10/12 04:55:00;;;;;;;;;;;;;;;31.79;26.27;97968.53;5011906;28;19922;-87
2023/10/12 04:57:27;;;;;;;;;;;;;;;32.30;25.88;97968.13;5013580;28;19921;-88
2023/10/12 05:00:06;;;;;;;;;;;;;;;32.30;25.98;97965.28;5014121;28;19922;-86
2023/10/12 05:10:31;;;;;;;;;;;;;;;32.43;25.80;97967.81;5010375;28;19926;-88
2023/10/12 05:13:10;;;;;;;;;;;;;;;32.57;25.12;97962.13;5016458;28;20423;-87
2023/10/12 05:15:42;;;;;;;;;;;;;;;32.20;25.92;97966.69;5016595;28;19918;-88
2023/10/12 05:18:09;;;;;;;;;;;;;;;32.17;26.01;97969.72;5016440;28;19924;-87
2023/10/12 05:20:36;;;;;;;;;;;;;;;32.25;25.73;97970.91;5016621;28;19961;-88
2023/10/12 05:23:02;;;;;;;;;;;;;;;32.35;25.53;97975.19;5016499;28;19921;-88
2023/10/12 05:28:17;;;;;;;;;;;;;;;32.55;25.61;97970.38;5015991;28;19944;-88
2023/10/12 05:30:49;;;;;;;;;;;;;;;32.78;25.22;97968.59;4996957;28;19933;-88
2023/10/12 05:33:37;;;;;;;;;;;;;;;33.02;25.13;97969.22;5016149;28;19933;-88
2023/10/12 05:36:13;;;;;;;;;;;;;;;33.28;24.65;97964.34;5016196;28;20020;-88
2023/10/12 05:38:48;;;;;;;;;;;;;;;33.25;24.92;97962.53;5016109;28;19922;-88
2023/10/12 05:44:16;;;;;;;;;;;;;;;33.28;24.50;97960.75;5033707;28;19921;-88
2023/10/12 05:46:45;;;;;;;;;;;;;;;33.41;25.13;97958.28;5019717;28;20012;-88
2023/10/12 05:49:14;;;;;;;;;;;;;;;33.43;25.05;97952.88;5015574;28;19963;-88
2023/10/12 05:51:43;;;;;;;;;;;;;;;33.39;24.86;97958.00;5014947;28;19921;-88
2023/10/12 05:54:10;;;;;;;;;;;;;;;33.97;24.57;97963.28;5018232;28;19979;-88
2023/10/12 05:56:36;;;;;;;;;;;;;;;33.76;24.43;97958.94;5015293;28;19921;-88
2023/10/12 05:59:09;;;;;;;;;;;;;;;34.00;24.23;97955.78;5015099;28;20424;-89
2023/10/12 06:01:36;;;;;;;;;;;;;;;34.04;24.34;97960.00;5015049;28;19922;-87
2023/10/12 06:04:06;;;;;;;;;;;;;;;33.91;24.46;97961.66;5015033;28;20019;-86
2023/10/12 06:06:36;;;;;;;;;;;;;;;34.05;24.43;97953.00;5015403;28;20203;-85
2023/10/12 06:09:05;;;;;;;;;;;;;;;34.22;24.03;97958.03;5015688;28;19921;-86
2023/10/12 06:11:31;;;;;;;;;;;;;;;34.36;24.08;97963.59;5016261;28;20370;-86
2023/10/12 06:13:59;;;;;;;;;;;;;;;34.29;24.01;97968.97;5015384;28;19923;-86
2023/10/12 06:16:26;;;;;;;;;;;;;;;34.54;23.70;97959.63;5015160;28;19972;-86
2023/10/12 06:18:54;;;;;;;;;;;;;;;34.42;24.13;97964.44;5013742;28;19924;-86
2023/10/12 06:21:20;;;;;;;;;;;;;;;34.29;24.42;97968.97;5015189;28;19980;-87
2023/10/12 06:23:50;;;;;;;;;;;;;;;34.26;24.07;97967.16;5015218;28;19924;-86
2023/10/12 06:26:29;;;;;;;;;;;;;;;33.74;24.13;97957.88;5013863;28;19972;-88
2023/10/12 06:28:56;;;;;;;;;;;;;;;33.55;24.63;97965.19;5011698;28;19980;-88
2023/10/12 06:31:22;;;;;;;;;;;;;;;33.58;24.42;97955.66;5014998;28;20081;-88
2023/10/12 06:33:49;;;;;;;;;;;;;;;33.60;24.34;97959.56;5014758;28;19967;-89
2023/10/12 06:36:22;;;;;;;;;;;;;;;33.66;24.40;97956.75;5014871;28;19918;-89
2023/10/12 06:44:13;;;;;;;;;;;;;;;34.04;23.94;97979.16;5015365;28;19922;-89
2023/10/12 06:46:45;;;;;;;;;;;;;;;33.94;23.72;97972.81;5015115;28;20016;-88
2023/10/12 06:49:18;;;;;;;;;;;;;;;34.02;24.10;97979.66;5014585;28;19917;-89
2023/10/12 06:51:53;;;;;;;;;;;;;;;33.91;24.01;97976.66;5013493;28;20301;-89
2023/10/12 06:59:52;;;;;;;;;;;;;;;34.72;24.22;97976.31;4995158;28;19928;-89
2023/10/12 07:02:24;;;;;;;;;;;;;;;34.89;23.37;97967.84;5009926;28;19929;-89
2023/10/12 07:05:01;;;;;;;;;;;;;;;35.08;23.17;97966.16;5014337;28;19928;-89
2023/10/12 07:07:30;;;;;;;;;;;;;;;35.24;23.30;97974.00;5013817;28;20297;-89
2023/10/12 07:12:48;;;;;;;;;;;;;;;35.91;23.41;97978.59;5013874;28;20358;-90
2023/10/12 07:15:19;;;;;;;;;;;;;;;35.91;23.22;97980.69;5013459;28;19960;-89
2023/10/12 07:17:49;;;;;;;;;;;;;;;36.06;22.61;97972.66;5016138;28;20301;-89
2023/10/12 07:20:25;;;;;;;;;;;;;;;35.76;22.91;97978.06;5033997;28;20292;-89
2023/10/12 07:22:51;;;;;;;;;;;;;;;36.15;22.27;97983.06;5033986;28;19924;-89
2023/10/12 07:25:22;;;;;;;;;;;;;;;36.22;22.01;97977.59;5033964;28;19962;-89
2023/10/12 07:27:58;;;;;;;;;;;;;;;36.27;22.59;97978.91;5025581;28;19990;-87
2023/10/12 07:30:33;;;;;;;;;;;;;;;36.40;22.30;97979.94;4994461;28;19918;-86
2023/10/12 07:33:04;;;;;;;;;;;;;;;36.34;22.73;97982.00;5009052;28;20302;-87
2023/10/12 07:35:34;;;;;;;;;;;;;;;36.25;22.59;97985.13;5010724;28;20324;-87
2023/10/12 07:38:02;;;;;;;;;;;;;;;36.12;22.33;97978.38;5012663;28;19921;-87
2023/10/12 07:40:41;;;;;;;;;;;;;;;35.91;22.17;97981.47;5013891;28;20000;-86
2023/10/12 07:43:08;;;;;;;;;;;;;;;36.05;22.10;97971.88;5014145;28;20020;-87
2023/10/12 07:45:40;;;;;;;;;;;;;;;36.19;22.72;97975.00;5013851;28;19922;-88
2023/10/12 07:48:09;;;;;;;;;;;;;;;35.78;23.26;97974.69;5014117;28;19965;-86
2023/10/12 07:50:45;;;;;;;;;;;;;;;35.39;23.12;97966.78;5013831;28;19917;-87
2023/10/12 07:53:24;;;;;;;;;;;;;;;35.38;23.19;97970.91;5014390;28;20455;-85
2023/10/12 07:55:53;;;;;;;;;;;;;;;35.34;23.03;97963.91;5005511;28;19929;-86
2023/10/12 07:58:21;;;;;;;;;;;;;;;35.23;23.15;97967.50;5000155;28;19945;-87
2023/10/12 08:00:51;;;;;;;;;;;;;;;35.25;22.86;97973.47;5012377;28;20369;-87
2023/10/12 08:03:18;;;;;;;;;;;;;;;35.07;23.33;97967.44;5013413;28;19928;-86
2023/10/12 08:05:56;;;;;;;;;;;;;;;35.25;23.66;97966.97;4996016;28;19928;-86
2023/10/12 08:08:33;;;;;;;;;;;;;;;35.41;23.17;97954.81;5013691;28;19964;-86
2023/10/12 08:11:08;;;;;;;;;;;;;;;35.22;23.69;97954.50;5009406;28;20392;-86
2023/10/12 08:13:39;;;;;;;;;;;;;;;35.09;23.63;97959.13;5013644;28;19921;-86
2023/10/12 08:16:13;;;;;;;;;;;;;;;35.01;23.68;97958.81;5013151;28;19923;-85
2023/10/12 08:26:48;;;;;;;;;;;;;;;35.53;23.77;97950.75;5008439;28;20320;-85
2023/10/12 08:32:11;;;;;;;;;;;;;;;35.75;23.45;97952.88;4993977;28;19926;-85
2023/10/12 08:39:38;;;;;;;;;;;;;;;35.23;23.77;97941.03;5010387;28;19937;-85
2023/10/12 08:45:07;;;;;;;;;;;;;;;36.12;22.26;97930.56;5013742;28;19924;-86
2023/10/12 08:52:30;;;;;;;;;;;;;;;35.52;23.88;97949.19;5016909;28;19917;-87
2023/10/12 08:55:11;;;;;;;;;;;;;;;35.56;23.20;97948.94;5016805;28;19921;-86
2023/10/12 08:57:43;;;;;;;;;;;;;;;36.11;23.16;97946.13;5016807;28;19914;-87
2023/10/12 09:00:23;;;;;;;;;;;;;;;36.36;22.72;97950.03;5016450;28;19924;-87
2023/10/12 09:02:53;;;;;;;;;;;;;;;36.23;22.60;97946.91;5016207;28;19956;-87
2023/10/12 09:05:24;;;;;;;;;;;;;;;36.12;22.69;97944.84;5016672;28;20012;-86
2023/10/12 09:08:06;;;;;;;;;;;;;;;36.36;23.44;97944.31;5016727;28;19924;-86
2023/10/12 09:10:55;;;;;;;;;;;;;;;35.72;22.56;97934.69;5016574;28;20393;-87
2023/10/12 09:13:28;;;;;;;;;;;;;;;36.06;22.61;97941.97;5014572;28;20368;-88
2023/10/12 09:15:55;;;;;;;;;;;;;;;36.00;24.19;97941.22;5016515;28;20365;-86
2023/10/12 09:18:24;;;;;;;;;;;;;;;36.26;22.06;97945.88;5017041;28;19973;-86
2023/10/12 09:23:28;;;;;;;;;;;;;;;36.34;23.51;97946.91;5015860;28;19921;-85
2023/10/12 09:31:15;;;;;;;;;;;;;;;37.32;21.79;97950.03;5015869;28;19925;-86
2023/10/12 09:33:45;;;;;;;;;;;;;;;37.20;21.97;97960.75;5014340;28;19921;-86
2023/10/12 09:36:11;;;;;;;;;;;;;;;37.21;22.05;97956.59;5015604;28;19918;-85
2023/10/12 09:38:38;;;;;;;;;;;;;;;36.68;21.62;97951.28;5015523;28;20011;-87
2023/10/12 09:41:08;;;;;;;;;;;;;;;36.38;22.09;97942.50;5015494;28;19929;-86
2023/10/12 09:43:39;;;;;;;;;;;;;;;35.39;23.36;97946.78;5014796;28;20386;-86
2023/10/12 09:46:06;;;;;;;;;;;;;;;36.43;22.40;97946.66;5012135;28;19924;-86
2023/10/12 09:48:38;;;;;;;;;;;;;;;36.37;21.94;97945.84;5015774;28;19922;-86
2023/10/12 09:51:15;;;;;;;;;;;;;;;36.66;21.83;97931.03;5016643;28;19952;-86
2023/10/12 09:53:44;;;;;;;;;;;;;;;35.63;22.71;97945.56;5015824;28;20337;-85
2023/10/12 09:56:11;;;;;;;;;;;;;;;35.13;22.44;97920.50;5010880;28;20378;-87
2023/10/12 10:04:27;;;;;;;;;;;;;;;36.20;22.14;97948.72;4996017;28;20291;-87
2023/10/12 10:07:08;;;;;;;;;;;;;;;35.18;23.17;97933.22;4995832;28;19917;-88
2023/10/12 10:12:04;;;;;;;;;;;;;;;34.93;23.65;97945.56;5015575;28;19960;-87
2023/10/12 10:14:39;;;;;;;;;;;;;;;36.41;23.41;97946.41;5015473;28;19922;-87
2023/10/12 10:17:11;;;;;;;;;;;;;;;36.34;22.74;97941.19;5015112;28;19921;-87
2023/10/12 10:19:38;;;;;;;;;;;;;;;36.43;22.47;97941.69;5013986;28;19928;-86
2023/10/12 10:22:08;;;;;;;;;;;;;;;36.24;22.47;97945.63;5014537;28;19921;-87
2023/10/12 10:24:46;;;;;;;;;;;;;;;35.60;22.67;97933.09;5015190;28;19921;-86
2023/10/12 10:27:13;;;;;;;;;;;;;;;36.42;22.41;97945.88;5013642;28;19960;-87
2023/10/12 10:29:41;;;;;;;;;;;;;;;36.11;23.43;97942.53;5014164;28;19936;-87
2023/10/12 10:32:07;;;;;;;;;;;;;;;36.04;22.46;97941.72;5014943;28;20389;-86
2023/10/12 10:34:34;;;;;;;;;;;;;;;36.68;21.90;97943.50;5014787;28;19921;-87
2023/10/12 10:37:04;;;;;;;;;;;;;;;36.98;21.83;97940.81;5015001;28;20277;-88
2023/10/12 10:39:30;;;;;;;;;;;;;;;36.72;22.34;97943.22;5014717;28;19917;-88
2023/10/12 10:42:00;;;;;;;;;;;;;;;36.43;22.54;97947.41;5018941;28;19948;-86
2023/10/12 10:44:27;;;;;;;;;;;;;;;36.06;22.71;97944.06;5034787;28;19921;-87
2023/10/12 10:46:57;;;;;;;;;;;;;;;36.12;22.75;97950.56;5034114;28;19921;-87
2023/10/12 10:49:30;;;;;;;;;;;;;;;36.25;22.31;97945.09;5015797;28;19925;-89
2023/10/12 10:54:37;;;;;;;;;;;;;;;36.51;22.25;97948.47;5010950;28;19926;-87
2023/10/12 10:57:16;;;;;;;;;;;;;;;35.97;23.10;97945.09;5014721;28;19948;-87
2023/10/12 10:59:43;;;;;;;;;;;;;;;36.18;22.92;97948.47;5013442;28;19926;-87
2023/10/12 11:02:13;;;;;;;;;;;;;;;34.96;23.48;97961.66;5012835;28;19933;-86
2023/10/12 11:04:42;;;;;;;;;;;;;;;34.95;24.03;97962.94;5014259;28;19923;-86
2023/10/12 11:07:11;;;;;;;;;;;;;;;35.14;23.70;97959.19;5013262;28;19918;-88
2023/10/12 11:12:20;;;;;;;;;;;;;;;33.71;25.96;97958.88;5013153;28;20305;-87
2023/10/12 11:17:40;;;;;;;;;;;;;;;34.57;24.37;97967.13;5030601;28;20024;-85
2023/10/12 11:20:27;;;;;;;;;;;;;;;34.71;24.24;97966.97;5033967;28;20420;-87
2023/10/12 11:22:53;;;;;;;;;;;;;;;35.06;23.60;97966.66;5012351;28;19926;-86
2023/10/12 11:25:20;;;;;;;;;;;;;;;35.04;23.42;97962.75;4999608;28;19957;-86
2023/10/12 11:27:46;;;;;;;;;;;;;;;35.31;23.98;97970.66;4994541;28;20009;-84
2023/10/12 11:30:19;;;;;;;;;;;;;;;35.88;23.52;97968.19;4994315;28;20389;-85
2023/10/12 11:32:54;;;;;;;;;;;;;;;35.88;23.45;97970.28;4997631;28;19925;-86
2023/10/12 11:35:33;;;;;;;;;;;;;;;35.11;24.64;97965.91;5014014;28;19921;-85
2023/10/12 11:38:00;;;;;;;;;;;;;;;35.70;24.02;97957.28;5013739;28;19921;-86
2023/10/12 11:40:30;;;;;;;;;;;;;;;35.64;24.20;97958.56;5010037;28;19927;-84
2023/10/12 11:42:57;;;;;;;;;;;;;;;35.85;23.40;97959.91;5013846;28;20370;-86
2023/10/12 11:45:32;;;;;;;;;;;;;;;36.52;22.92;97952.13;5010200;28;19925;-85
2023/10/12 11:48:17;;;;;;;;;;;;;;;37.07;22.69;97951.97;5013815;28;19918;-86
2023/10/12 11:50:45;;;;;;;;;;;;;;;36.89;22.30;97960.34;5013626;28;19925;-86
2023/10/12 11:53:14;;;;;;;;;;;;;;;36.28;23.34;97961.22;5013144;28;20012;-86
2023/10/12 11:55:41;;;;;;;;;;;;;;;35.87;23.27;97968.72;5014024;28;19918;-86
2023/10/12 11:58:07;;;;;;;;;;;;;;;35.50;23.87;97965.25;5013366;28;20358;-85
2023/10/12 12:00:44;;;;;;;;;;;;;;;34.35;24.97;97981.22;5011918;28;20329;-87
2023/10/12 12:03:11;;;;;;;;;;;;;;;34.39;25.06;97976.84;5010925;28;19929;-87
2023/10/12 12:05:37;;;;;;;;;;;;;;;35.30;25.56;97975.56;5013167;28;20279;-87
2023/10/12 12:08:15;;;;;;;;;;;;;;;35.62;23.83;97961.91;5014234;28;19929;-86
2023/10/12 12:10:56;;;;;;;;;;;;;;;35.22;24.98;97987.97;5012024;28;19929;-87
2023/10/12 12:13:23;;;;;;;;;;;;;;;34.19;25.53;98002.63;4994061;28;19925;-88
2023/10/12 12:15:49;;;;;;;;;;;;;;;34.52;25.22;98005.72;4994202;28;19917;-88
2023/10/12 12:18:19;;;;;;;;;;;;;;;34.93;24.30;98011.97;4994068;28;20378;-88
2023/10/12 12:20:49;;;;;;;;;;;;;;;34.52;23.96;98000.03;4997801;28;20325;-87
2023/10/12 12:23:16;;;;;;;;;;;;;;;33.41;27.09;97986.75;5009913;28;19924;-87
2023/10/12 12:25:42;;;;;;;;;;;;;;;32.82;26.85;98000.47;5017037;28;19974;-87
2023/10/12 12:28:14;;;;;;;;;;;;;;;33.31;27.81;97999.56;5016088;28;19917;-89
2023/10/12 12:30:46;;;;;;;;;;;;;;;34.90;24.63;98006.50;5017218;28;19917;-88
2023/10/12 12:33:15;;;;;;;;;;;;;;;33.38;25.70;98004.81;5013338;28;19926;-85
2023/10/12 12:35:44;;;;;;;;;;;;;;;33.09;27.02;98002.16;5014278;28;19925;-86
2023/10/12 12:38:28;;;;;;;;;;;;;;;33.90;25.14;98008.53;5015192;28;19988;-86
2023/10/12 12:40:55;;;;;;;;;;;;;;;35.32;23.89;98010.09;5016852;28;20435;-86
2023/10/12 12:43:21;;;;;;;;;;;;;;;34.68;24.30;98029.97;5015861;28;19922;-86
2023/10/12 12:45:47;;;;;;;;;;;;;;;35.02;24.14;98033.84;5017032;28;19918;-87
2023/10/12 12:48:14;;;;;;;;;;;;;;;35.04;24.21;98026.31;5017300;28;19922;-89
2023/10/12 12:50:43;;;;;;;;;;;;;;;34.57;24.42;98030.66;5014006;28;19998;-89
2023/10/12 12:53:11;;;;;;;;;;;;;;;35.51;23.59;98019.03;5013453;28;20266;-88
2023/10/12 12:55:38;;;;;;;;;;;;;;;35.97;22.94;98013.72;5015382;28;19956;-89
2023/10/12 12:58:05;;;;;;;;;;;;;;;36.32;22.89;98033.22;5012479;28;19928;-88
2023/10/12 13:00:33;;;;;;;;;;;;;;;35.19;23.80;98015.50;5019035;28;20025;-86
2023/10/12 13:03:00;;;;;;;;;;;;;;;34.44;24.23;98024.59;5011785;28;19921;-89
2023/10/12 13:05:28;;;;;;;;;;;;;;;33.55;26.34;98036.38;5014856;28;19922;-89
2023/10/12 13:07:55;;;;;;;;;;;;;;;33.37;26.20;98043.13;5015609;28;19921;-88
2023/10/12 13:10:22;;;;;;;;;;;;;;;34.74;24.87;98039.34;5015897;28;19921;-89
2023/10/12 13:12:48;;;;;;;;;;;;;;;34.49;24.88;98037.31;5015904;28;19922;-89
2023/10/12 13:15:14;;;;;;;;;;;;;;;34.29;25.15;98037.41;5022187;28;20387;-89
2023/10/12 13:17:40;;;;;;;;;;;;;;;34.87;24.33;98039.69;5036292;28;20338;-89
2023/10/12 13:20:18;;;;;;;;;;;;;;;34.73;24.85;98044.25;5035918;28;19963;-89
2023/10/12 13:22:44;;;;;;;;;;;;;;;34.91;24.80;98048.00;5006862;28;19944;-89
2023/10/12 13:25:11;;;;;;;;;;;;;;;34.56;24.92;98046.22;5016206;28;19922;-90
2023/10/12 13:27:37;;;;;;;;;;;;;;;34.44;25.43;98036.00;5016307;28;19922;-89
2023/10/12 13:30:09;;;;;;;;;;;;;;;34.60;25.23;98051.69;5015773;28;20388;-88
2023/10/12 13:32:36;;;;;;;;;;;;;;;33.93;26.24;98053.13;5016790;28;19926;-88
2023/10/12 13:35:17;;;;;;;;;;;;;;;34.34;25.32;98045.22;5014602;28;19922;-89
2023/10/12 13:37:51;;;;;;;;;;;;;;;34.07;25.78;98057.94;5016177;28;20267;-88
2023/10/12 13:40:17;;;;;;;;;;;;;;;34.62;25.10;98052.75;5015911;28;19971;-88
2023/10/12 13:42:43;;;;;;;;;;;;;;;34.46;25.03;98061.13;5012444;28;19929;-89
2023/10/12 13:45:12;;;;;;;;;;;;;;;34.29;25.47;98058.16;5006806;28;19947;-87
2023/10/12 13:47:40;;;;;;;;;;;;;;;33.99;25.84;98053.94;5006923;28;19918;-89
2023/10/12 13:50:10;;;;;;;;;;;;;;;33.84;26.41;98056.13;5010258;28;19980;-89
2023/10/12 13:52:37;;;;;;;;;;;;;;;34.77;25.55;98061.16;5008407;28;19917;-87
2023/10/12 13:55:11;;;;;;;;;;;;;;;35.17;24.34;98051.56;5014330;28;19925;-90
2023/10/12 13:57:55;;;;;;;;;;;;;;;35.23;24.18;98046.66;5015038;28;19921;-90
2023/10/12 14:00:25;;;;;;;;;;;;;;;35.86;23.94;98042.25;5011255;28;19929;-91
2023/10/12 14:02:56;;;;;;;;;;;;;;;34.92;24.05;98055.28;5004407;28;19926;-88
2023/10/12 14:05:27;;;;;;;;;;;;;;;34.43;24.77;98051.53;5007344;28;19917;-90
2023/10/12 14:07:59;;;;;;;;;;;;;;;33.83;25.87;98055.34;5009875;28;19926;-90
2023/10/12 14:10:29;;;;;;;;;;;;;;;35.21;24.06;98060.66;5010603;28;19999;-88
2023/10/12 14:12:56;;;;;;;;;;;;;;;35.03;24.31;98049.69;5013011;28;20358;-91
2023/10/12 14:15:26;;;;;;;;;;;;;;;34.87;24.28;98051.09;5011246;28;19953;-90
2023/10/12 14:17:56;;;;;;;;;;;;;;;35.24;24.26;98051.09;5007932;28;20044;-90
2023/10/12 14:20:28;;;;;;;;;;;;;;;34.63;24.32;98053.53;5013235;28;19948;-90
2023/10/12 14:22:58;;;;;;;;;;;;;;;34.44;25.15;98058.81;5012295;28;19921;-88
2023/10/12 14:25:27;;;;;;;;;;;;;;;33.91;25.90;98058.53;5004079;28;20397;-89
2023/10/12 14:27:54;;;;;;;;;;;;;;;33.86;25.92;98071.44;4999060;28;19948;-88
2023/10/12 14:30:28;;;;;;;;;;;;;;;34.14;25.63;98074.59;5014502;28;19968;-88
2023/10/12 14:32:55;;;;;;;;;;;;;;;34.29;25.64;98075.25;5014513;28;19972;-88
2023/10/12 14:35:21;;;;;;;;;;;;;;;34.37;25.36;98081.28;5010737;28;19925;-89
2023/10/12 14:37:47;;;;;;;;;;;;;;;34.19;25.47;98073.88;5000954;28;19922;-88
2023/10/12 14:40:18;;;;;;;;;;;;;;;33.88;25.86;98083.13;5010234;28;19925;-88
2023/10/12 14:42:44;;;;;;;;;;;;;;;34.10;25.85;98081.81;5011786;28;19948;-88
2023/10/12 14:45:10;;;;;;;;;;;;;;;34.50;25.53;98085.28;5010858;28;20362;-90
2023/10/12 14:47:36;;;;;;;;;;;;;;;34.50;25.48;98085.28;5010145;28;20016;-89
2023/10/12 14:50:05;;;;;;;;;;;;;;;34.88;25.32;98080.41;5012093;28;19918;-88
2023/10/12 14:52:38;;;;;;;;;;;;;;;35.05;25.18;98098.47;5004612;28;19922;-88
2023/10/12 14:55:05;;;;;;;;;;;;;;;34.43;25.85;98088.59;5002911;28;19957;-88
2023/10/12 14:57:31;;;;;;;;;;;;;;;34.36;26.25;98091.91;5015391;28;20297;-93
2023/10/12 14:59:59;;;;;;;;;;;;;;;34.04;26.47;98090.28;5007068;28;19929;-87
2023/10/12 15:02:27;;;;;;;;;;;;;;;33.58;27.20;98084.56;5008638;28;19926;-88
2023/10/12 15:04:53;;;;;;;;;;;;;;;33.75;27.02;98079.09;4998539;28;20029;-87
2023/10/12 15:07:20;;;;;;;;;;;;;;;34.15;26.91;98081.84;5019928;28;19956;-90
2023/10/12 15:09:48;;;;;;;;;;;;;;;33.91;27.37;98084.19;5006669;28;20368;-89
2023/10/12 15:12:14;;;;;;;;;;;;;;;34.16;27.14;98079.78;5016712;28;19921;-87
2023/10/12 15:14:41;;;;;;;;;;;;;;;34.54;26.54;98080.16;5009138;28;19948;-93
2023/10/12 15:17:07;;;;;;;;;;;;;;;34.77;26.27;98086.03;5011581;28;19991;-96
2023/10/12 15:19:34;;;;;;;;;;;;;;;34.92;26.32;98080.94;5004989;28;20397;-92
2023/10/12 15:22:00;;;;;;;;;;;;;;;35.09;25.87;98088.38;5003991;28;19930;-91